sensor_id;sensor_type;location;lat;lon;timestamp;pressure;altitude;pressure_sealevel;temperature;humidity
58473;BME280;44775;51.564;5.460;2023-01-27T00:02:16;102189.69;;;4.43;100.00
58473;BME280;44775;51.564;5.460;2023-01-27T00:04:42;102195.66;;;4.33;100.00
58473;BME280;44775;51.564;5.460;2023-01-27T00:07:07;102176.06;;;4.21;100.00
58473;BME280;44775;51.564;5.460;2023-01-27T00:09:33;102187.63;;;4.20;100.00
58473;BME280;44775;51.564;5.460;2023-01-27T00:11:58;102184.97;;;4.20;100.00
58473;BME280;44775;51.564;5.460;2023-01-27T00:14:42;102189.03;;;4.11;100.00
58473;BME280;44775;51.564;5.460;2023-01-27T00:17:08;102175.72;;;4.13;100.00
58473;BME280;44775;51.564;5.460;2023-01-27T00:19:33;102189.03;;;4.25;100.00
58473;BME280;44775;51.564;5.460;2023-01-27T00:21:59;102181.47;;;4.05;100.00
58473;BME280;44775;51.564;5.460;2023-01-27T00:24:44;102178.91;;;4.03;100.00
58473;BME280;44775;51.564;5.460;2023-01-27T00:27:09;102186.19;;;4.14;100.00
58473;BME280;44775;51.564;5.460;2023-01-27T00:29:35;102186.47;;;4.10;100.00
58473;BME280;44775;51.564;5.460;2023-01-27T00:32:01;102180.44;;;4.22;100.00
58473;BME280;44775;51.564;5.460;2023-01-27T00:34:45;102184.59;;;4.12;100.00
58473;BME280;44775;51.564;5.460;2023-01-27T00:37:10;102189.59;;;4.16;100.00
58473;BME280;44775;51.564;5.460;2023-01-27T00:39:36;102197.66;;;4.29;100.00
58473;BME280;44775;51.564;5.460;2023-01-27T00:42:01;102184.13;;;4.05;100.00
58473;BME280;44775;51.564;5.460;2023-01-27T00:44:27;102194.72;;;4.05;100.00
58473;BME280;44775;51.564;5.460;2023-01-27T00:46:53;102194.59;;;4.07;100.00
58473;BME280;44775;51.564;5.460;2023-01-27T00:49:18;102197.53;;;4.02;100.00
58473;BME280;44775;51.564;5.460;2023-01-27T00:51:43;102200.25;;;4.00;100.00
58473;BME280;44775;51.564;5.460;2023-01-27T00:54:09;102193.47;;;3.96;100.00
58473;BME280;44775;51.564;5.460;2023-01-27T00:56:35;102190.25;;;4.06;100.00
58473;BME280;44775;51.564;5.460;2023-01-27T00:59:02;102183.91;;;3.94;100.00
58473;BME280;44775;51.564;5.460;2023-01-27T01:01:27;102199.13;;;3.90;100.00
58473;BME280;44775;51.564;5.460;2023-01-27T01:03:53;102200.25;;;3.86;100.00
58473;BME280;44775;51.564;5.460;2023-01-27T01:06:19;102204.50;;;3.89;100.00
58473;BME280;44775;51.564;5.460;2023-01-27T01:08:45;102197.97;;;3.94;100.00
58473;BME280;44775;51.564;5.460;2023-01-27T01:11:15;102197.78;;;3.83;100.00
58473;BME280;44775;51.564;5.460;2023-01-27T01:13:42;102198.16;;;3.77;100.00
58473;BME280;44775;51.564;5.460;2023-01-27T01:18:37;102201.25;;;3.69;100.00
58473;BME280;44775;51.564;5.460;2023-01-27T01:21:03;102208.41;;;3.67;100.00
58473;BME280;44775;51.564;5.460;2023-01-27T01:23:31;102207.84;;;3.62;100.00
58473;BME280;44775;51.564;5.460;2023-01-27T01:25:57;102204.25;;;3.63;100.00
58473;BME280;44775;51.564;5.460;2023-01-27T01:28:24;102213.63;;;3.69;100.00
58473;BME280;44775;51.564;5.460;2023-01-27T01:30:50;102216.72;;;3.61;100.00
58473;BME280;44775;51.564;5.460;2023-01-27T01:33:16;102217.88;;;3.71;100.00
58473;BME280;44775;51.564;5.460;2023-01-27T01:35:42;102221.72;;;3.66;100.00
58473;BME280;44775;51.564;5.460;2023-01-27T01:38:08;102212.16;;;3.93;100.00
58473;BME280;44775;51.564;5.460;2023-01-27T01:40:39;102230.09;;;3.88;100.00
58473;BME280;44775;51.564;5.460;2023-01-27T01:43:11;102222.78;;;3.77;100.00
58473;BME280;44775;51.564;5.460;2023-01-27T01:45:51;102225.84;;;3.86;100.00
58473;BME280;44775;51.564;5.460;2023-01-27T01:48:22;102228.34;;;3.73;100.00
58473;BME280;44775;51.564;5.460;2023-01-27T01:54:00;102225.03;;;3.69;100.00
58473;BME280;44775;51.564;5.460;2023-01-27T01:56:27;102225.69;;;3.59;100.00
58473;BME280;44775;51.564;5.460;2023-01-27T01:58:56;102218.66;;;3.58;100.00
58473;BME280;44775;51.564;5.460;2023-01-27T02:01:24;102226.25;;;3.64;100.00
58473;BME280;44775;51.564;5.460;2023-01-27T02:03:53;102215.28;;;3.55;100.00
58473;BME280;44775;51.564;5.460;2023-01-27T02:06:20;102218.81;;;3.70;100.00
58473;BME280;44775;51.564;5.460;2023-01-27T02:08:48;102217.06;;;3.85;100.00
58473;BME280;44775;51.564;5.460;2023-01-27T02:11:16;102221.88;;;3.78;100.00
58473;BME280;44775;51.564;5.460;2023-01-27T02:13:42;102221.28;;;3.73;100.00
58473;BME280;44775;51.564;5.460;2023-01-27T02:16:09;102218.59;;;3.59;100.00
58473;BME280;44775;51.564;5.460;2023-01-27T02:18:36;102216.91;;;3.58;100.00
58473;BME280;44775;51.564;5.460;2023-01-27T02:21:03;102223.94;;;3.58;100.00
58473;BME280;44775;51.564;5.460;2023-01-27T02:28:40;102217.50;;;3.47;100.00
58473;BME280;44775;51.564;5.460;2023-01-27T02:31:06;102227.16;;;3.48;100.00
58473;BME280;44775;51.564;5.460;2023-01-27T02:33:31;102226.59;;;3.58;100.00
58473;BME280;44775;51.564;5.460;2023-01-27T02:36:01;102235.81;;;3.50;100.00
58473;BME280;44775;51.564;5.460;2023-01-27T02:38:31;102234.59;;;3.42;100.00
58473;BME280;44775;51.564;5.460;2023-01-27T02:41:02;102247.13;;;3.38;100.00
58473;BME280;44775;51.564;5.460;2023-01-27T02:43:29;102236.94;;;3.46;100.00
58473;BME280;44775;51.564;5.460;2023-01-27T02:45:54;102239.69;;;3.45;100.00
58473;BME280;44775;51.564;5.460;2023-01-27T02:48:20;102241.53;;;3.59;100.00
58473;BME280;44775;51.564;5.460;2023-01-27T02:50:45;102240.44;;;3.47;100.00
58473;BME280;44775;51.564;5.460;2023-01-27T02:53:11;102241.66;;;3.41;100.00
58473;BME280;44775;51.564;5.460;2023-01-27T02:55:36;102233.81;;;3.40;100.00
58473;BME280;44775;51.564;5.460;2023-01-27T02:58:01;102232.19;;;3.37;100.00
58473;BME280;44775;51.564;5.460;2023-01-27T03:00:27;102239.88;;;3.42;100.00
58473;BME280;44775;51.564;5.460;2023-01-27T03:02:53;102246.28;;;3.38;100.00
58473;BME280;44775;51.564;5.460;2023-01-27T03:05:18;102242.00;;;3.35;100.00
58473;BME280;44775;51.564;5.460;2023-01-27T03:07:44;102247.47;;;3.32;100.00
58473;BME280;44775;51.564;5.460;2023-01-27T03:10:09;102245.94;;;3.28;100.00
58473;BME280;44775;51.564;5.460;2023-01-27T03:12:35;102247.13;;;3.38;100.00
58473;BME280;44775;51.564;5.460;2023-01-27T03:15:01;102242.00;;;3.35;100.00
58473;BME280;44775;51.564;5.460;2023-01-27T03:17:45;102244.91;;;3.30;100.00
58473;BME280;44775;51.564;5.460;2023-01-27T03:20:29;102258.88;;;3.48;100.00
58473;BME280;44775;51.564;5.460;2023-01-27T03:22:54;102256.78;;;3.69;100.00
58473;BME280;44775;51.564;5.460;2023-01-27T03:25:20;102243.91;;;3.63;100.00
58473;BME280;44775;51.564;5.460;2023-01-27T03:27:45;102238.63;;;3.63;100.00
58473;BME280;44775;51.564;5.460;2023-01-27T03:30:11;102250.63;;;3.39;100.00
58473;BME280;44775;51.564;5.460;2023-01-27T03:32:37;102248.22;;;3.34;100.00
58473;BME280;44775;51.564;5.460;2023-01-27T03:35:03;102249.78;;;3.22;100.00
58473;BME280;44775;51.564;5.460;2023-01-27T03:37:29;102256.84;;;3.22;100.00
58473;BME280;44775;51.564;5.460;2023-01-27T03:40:15;102266.47;;;3.23;100.00
58473;BME280;44775;51.564;5.460;2023-01-27T03:43:00;102266.75;;;3.18;100.00
58473;BME280;44775;51.564;5.460;2023-01-27T03:45:47;102257.19;;;3.16;100.00
58473;BME280;44775;51.564;5.460;2023-01-27T03:48:31;102266.13;;;3.29;100.00
58473;BME280;44775;51.564;5.460;2023-01-27T03:50:58;102258.81;;;3.18;100.00
58473;BME280;44775;51.564;5.460;2023-01-27T03:53:24;102265.34;;;3.27;100.00
58473;BME280;44775;51.564;5.460;2023-01-27T03:55:49;102269.56;;;3.15;100.00
58473;BME280;44775;51.564;5.460;2023-01-27T03:58:24;102276.53;;;3.32;100.00
58473;BME280;44775;51.564;5.460;2023-01-27T04:03:39;102270.91;;;3.06;100.00
58473;BME280;44775;51.564;5.460;2023-01-27T04:06:25;102280.88;;;3.01;100.00
58473;BME280;44775;51.564;5.460;2023-01-27T04:09:11;102277.28;;;3.02;100.00
58473;BME280;44775;51.564;5.460;2023-01-27T04:11:37;102272.00;;;3.02;100.00
58473;BME280;44775;51.564;5.460;2023-01-27T04:14:44;102270.31;;;3.01;100.00
58473;BME280;44775;51.564;5.460;2023-01-27T04:17:11;102282.25;;;3.24;100.00
58473;BME280;44775;51.564;5.460;2023-01-27T04:19:37;102272.34;;;2.96;100.00
58473;BME280;44775;51.564;5.460;2023-01-27T04:22:03;102275.09;;;2.95;100.00
58473;BME280;44775;51.564;5.460;2023-01-27T04:24:29;102274.31;;;2.93;100.00
58473;BME280;44775;51.564;5.460;2023-01-27T04:27:00;102272.94;;;3.17;100.00
58473;BME280;44775;51.564;5.460;2023-01-27T04:29:37;102260.44;;;3.05;100.00
58473;BME280;44775;51.564;5.460;2023-01-27T04:32:05;102278.66;;;3.41;100.00
58473;BME280;44775;51.564;5.460;2023-01-27T04:34:31;102270.81;;;3.24;100.00
58473;BME280;44775;51.564;5.460;2023-01-27T04:36:57;102282.22;;;3.40;100.00
58473;BME280;44775;51.564;5.460;2023-01-27T04:39:24;102284.56;;;3.15;100.00
58473;BME280;44775;51.564;5.460;2023-01-27T04:41:50;102286.84;;;3.21;100.00
58473;BME280;44775;51.564;5.460;2023-01-27T04:44:16;102285.63;;;3.42;100.00
58473;BME280;44775;51.564;5.460;2023-01-27T04:46:44;102292.47;;;3.15;100.00
58473;BME280;44775;51.564;5.460;2023-01-27T04:49:10;102287.94;;;3.17;100.00
58473;BME280;44775;51.564;5.460;2023-01-27T04:51:36;102287.84;;;3.02;100.00
58473;BME280;44775;51.564;5.460;2023-01-27T04:54:01;102295.03;;;3.32;100.00
58473;BME280;44775;51.564;5.460;2023-01-27T04:56:39;102287.34;;;3.12;100.00
58473;BME280;44775;51.564;5.460;2023-01-27T04:59:09;102297.59;;;3.18;100.00
58473;BME280;44775;51.564;5.460;2023-01-27T05:01:34;102293.31;;;3.15;100.00
58473;BME280;44775;51.564;5.460;2023-01-27T05:04:00;102290.41;;;3.20;100.00
58473;BME280;44775;51.564;5.460;2023-01-27T05:06:26;102309.66;;;3.06;100.00
58473;BME280;44775;51.564;5.460;2023-01-27T05:08:52;102304.84;;;3.14;100.00
58473;BME280;44775;51.564;5.460;2023-01-27T05:11:18;102300.31;;;3.16;100.00
58473;BME280;44775;51.564;5.460;2023-01-27T05:13:44;102305.88;;;3.27;100.00
58473;BME280;44775;51.564;5.460;2023-01-27T05:16:12;102306.00;;;3.40;100.00
58473;BME280;44775;51.564;5.460;2023-01-27T05:18:38;102310.09;;;3.46;100.00
58473;BME280;44775;51.564;5.460;2023-01-27T05:21:05;102305.44;;;3.35;100.00
58473;BME280;44775;51.564;5.460;2023-01-27T05:23:31;102317.69;;;3.20;100.00
58473;BME280;44775;51.564;5.460;2023-01-27T05:26:11;102316.84;;;3.51;100.00
58473;BME280;44775;51.564;5.460;2023-01-27T05:28:38;102313.16;;;3.54;100.00
58473;BME280;44775;51.564;5.460;2023-01-27T05:31:09;102311.47;;;3.37;100.00
58473;BME280;44775;51.564;5.460;2023-01-27T05:33:36;102315.81;;;3.38;100.00
58473;BME280;44775;51.564;5.460;2023-01-27T05:36:03;102326.91;;;3.45;100.00
58473;BME280;44775;51.564;5.460;2023-01-27T05:38:29;102325.72;;;3.35;100.00
58473;BME280;44775;51.564;5.460;2023-01-27T05:40:59;102332.97;;;3.31;100.00
58473;BME280;44775;51.564;5.460;2023-01-27T05:43:30;102341.06;;;3.28;100.00
58473;BME280;44775;51.564;5.460;2023-01-27T05:48:28;102336.28;;;3.19;100.00
58473;BME280;44775;51.564;5.460;2023-01-27T05:50:56;102337.81;;;3.23;100.00
58473;BME280;44775;51.564;5.460;2023-01-27T05:53:22;102340.09;;;3.29;100.00
58473;BME280;44775;51.564;5.460;2023-01-27T05:55:48;102339.00;;;3.33;100.00
58473;BME280;44775;51.564;5.460;2023-01-27T05:58:14;102349.72;;;3.30;100.00
58473;BME280;44775;51.564;5.460;2023-01-27T06:00:40;102336.75;;;3.10;100.00
58473;BME280;44775;51.564;5.460;2023-01-27T06:03:05;102349.66;;;3.16;100.00
58473;BME280;44775;51.564;5.460;2023-01-27T06:05:31;102345.03;;;3.19;100.00
58473;BME280;44775;51.564;5.460;2023-01-27T06:07:56;102346.66;;;3.22;100.00
58473;BME280;44775;51.564;5.460;2023-01-27T06:10:21;102349.06;;;3.11;100.00
58473;BME280;44775;51.564;5.460;2023-01-27T06:12:47;102351.84;;;3.23;100.00
58473;BME280;44775;51.564;5.460;2023-01-27T06:15:12;102343.25;;;3.20;100.00
58473;BME280;44775;51.564;5.460;2023-01-27T06:17:38;102344.47;;;3.14;100.00
58473;BME280;44775;51.564;5.460;2023-01-27T06:20:03;102355.25;;;3.10;100.00
58473;BME280;44775;51.564;5.460;2023-01-27T06:22:29;102359.44;;;3.14;100.00
58473;BME280;44775;51.564;5.460;2023-01-27T06:24:55;102355.00;;;3.30;100.00
58473;BME280;44775;51.564;5.460;2023-01-27T06:27:20;102361.91;;;3.17;100.00
58473;BME280;44775;51.564;5.460;2023-01-27T06:29:46;102350.59;;;3.15;100.00
58473;BME280;44775;51.564;5.460;2023-01-27T06:32:11;102358.19;;;3.21;100.00
58473;BME280;44775;51.564;5.460;2023-01-27T06:34:36;102369.81;;;3.17;100.00
58473;BME280;44775;51.564;5.460;2023-01-27T06:37:02;102368.75;;;3.21;100.00
58473;BME280;44775;51.564;5.460;2023-01-27T06:39:27;102373.25;;;3.19;100.00
58473;BME280;44775;51.564;5.460;2023-01-27T06:41:53;102355.00;;;3.30;100.00
58473;BME280;44775;51.564;5.460;2023-01-27T06:44:18;102354.75;;;3.19;100.00
58473;BME280;44775;51.564;5.460;2023-01-27T06:46:43;102352.97;;;3.19;100.00
58473;BME280;44775;51.564;5.460;2023-01-27T06:49:09;102362.69;;;3.19;100.00
58473;BME280;44775;51.564;5.460;2023-01-27T06:51:35;102363.88;;;3.29;100.00
58473;BME280;44775;51.564;5.460;2023-01-27T06:54:00;102353.47;;;3.26;100.00
58473;BME280;44775;51.564;5.460;2023-01-27T06:56:26;102348.56;;;3.36;100.00
58473;BME280;44775;51.564;5.460;2023-01-27T06:58:51;102361.84;;;3.34;100.00
58473;BME280;44775;51.564;5.460;2023-01-27T07:01:17;102361.75;;;3.36;100.00
58473;BME280;44775;51.564;5.460;2023-01-27T07:03:42;102363.63;;;3.49;100.00
58473;BME280;44775;51.564;5.460;2023-01-27T07:06:08;102365.44;;;3.49;100.00
58473;BME280;44775;51.564;5.460;2023-01-27T07:08:35;102363.38;;;3.54;100.00
58473;BME280;44775;51.564;5.460;2023-01-27T07:11:02;102367.06;;;3.51;100.00
58473;BME280;44775;51.564;5.460;2023-01-27T07:13:28;102366.28;;;3.49;100.00
58473;BME280;44775;51.564;5.460;2023-01-27T07:15:54;102368.81;;;3.51;100.00
58473;BME280;44775;51.564;5.460;2023-01-27T07:18:20;102367.56;;;3.42;100.00
58473;BME280;44775;51.564;5.460;2023-01-27T07:20:45;102370.97;;;3.44;100.00
58473;BME280;44775;51.564;5.460;2023-01-27T07:23:11;102378.19;;;3.41;100.00
58473;BME280;44775;51.564;5.460;2023-01-27T07:25:37;102375.50;;;3.42;100.00
58473;BME280;44775;51.564;5.460;2023-01-27T07:28:04;102376.16;;;3.46;100.00
58473;BME280;44775;51.564;5.460;2023-01-27T07:30:30;102380.59;;;3.45;100.00
58473;BME280;44775;51.564;5.460;2023-01-27T07:33:11;102380.44;;;3.48;100.00
58473;BME280;44775;51.564;5.460;2023-01-27T07:35:37;102386.56;;;3.49;100.00
58473;BME280;44775;51.564;5.460;2023-01-27T07:38:04;102388.88;;;3.55;100.00
58473;BME280;44775;51.564;5.460;2023-01-27T07:40:30;102390.16;;;3.64;100.00
58473;BME280;44775;51.564;5.460;2023-01-27T07:42:59;102388.56;;;3.61;100.00
58473;BME280;44775;51.564;5.460;2023-01-27T07:45:25;102389.56;;;3.59;100.00
58473;BME280;44775;51.564;5.460;2023-01-27T07:47:51;102401.84;;;3.60;100.00
58473;BME280;44775;51.564;5.460;2023-01-27T07:50:17;102401.94;;;3.58;100.00
58473;BME280;44775;51.564;5.460;2023-01-27T07:52:42;102401.06;;;3.58;100.00
58473;BME280;44775;51.564;5.460;2023-01-27T07:55:08;102405.44;;;3.59;100.00
58473;BME280;44775;51.564;5.460;2023-01-27T07:57:33;102404.72;;;3.71;100.00
58473;BME280;44775;51.564;5.460;2023-01-27T07:59:59;102401.41;;;3.83;100.00
58473;BME280;44775;51.564;5.460;2023-01-27T08:02:24;102404.03;;;3.83;100.00
58473;BME280;44775;51.564;5.460;2023-01-27T08:04:52;102410.34;;;3.81;100.00
58473;BME280;44775;51.564;5.460;2023-01-27T08:07:18;102396.72;;;3.88;100.00
58473;BME280;44775;51.564;5.460;2023-01-27T08:09:43;102400.56;;;3.83;100.00
58473;BME280;44775;51.564;5.460;2023-01-27T08:12:09;102400.88;;;3.92;100.00
58473;BME280;44775;51.564;5.460;2023-01-27T08:14:34;102406.00;;;3.95;100.00
58473;BME280;44775;51.564;5.460;2023-01-27T08:17:00;102405.31;;;3.92;100.00
58473;BME280;44775;51.564;5.460;2023-01-27T08:19:25;102406.34;;;3.89;100.00
58473;BME280;44775;51.564;5.460;2023-01-27T08:21:51;102410.50;;;3.93;100.00
58473;BME280;44775;51.564;5.460;2023-01-27T08:24:16;102412.38;;;3.91;100.00
58473;BME280;44775;51.564;5.460;2023-01-27T08:26:41;102413.25;;;3.92;100.00
58473;BME280;44775;51.564;5.460;2023-01-27T08:29:07;102415.03;;;3.91;100.00
58473;BME280;44775;51.564;5.460;2023-01-27T08:31:32;102409.75;;;3.91;100.00
58473;BME280;44775;51.564;5.460;2023-01-27T08:33:58;102414.00;;;3.94;100.00
58473;BME280;44775;51.564;5.460;2023-01-27T08:36:23;102419.31;;;3.94;100.00
58473;BME280;44775;51.564;5.460;2023-01-27T08:38:49;102415.28;;;4.02;100.00
58473;BME280;44775;51.564;5.460;2023-01-27T08:41:26;102417.75;;;4.06;100.00
58473;BME280;44775;51.564;5.460;2023-01-27T08:43:53;102419.81;;;4.00;100.00
58473;BME280;44775;51.564;5.460;2023-01-27T08:46:19;102419.63;;;4.03;100.00
58473;BME280;44775;51.564;5.460;2023-01-27T08:48:44;102431.41;;;3.98;100.00
58473;BME280;44775;51.564;5.460;2023-01-27T08:51:12;102424.53;;;3.95;100.00
58473;BME280;44775;51.564;5.460;2023-01-27T08:53:38;102438.94;;;4.06;100.00
58473;BME280;44775;51.564;5.460;2023-01-27T08:56:07;102437.03;;;4.08;100.00
58473;BME280;44775;51.564;5.460;2023-01-27T08:58:32;102443.66;;;4.15;100.00
58473;BME280;44775;51.564;5.460;2023-01-27T09:00:59;102442.16;;;4.11;100.00
58473;BME280;44775;51.564;5.460;2023-01-27T09:03:26;102461.69;;;4.24;100.00
58473;BME280;44775;51.564;5.460;2023-01-27T09:05:52;102459.38;;;4.18;100.00
58473;BME280;44775;51.564;5.460;2023-01-27T09:08:17;102462.44;;;4.26;100.00
58473;BME280;44775;51.564;5.460;2023-01-27T09:10:43;102466.00;;;4.25;100.00
58473;BME280;44775;51.564;5.460;2023-01-27T09:13:08;102457.50;;;4.20;100.00
58473;BME280;44775;51.564;5.460;2023-01-27T09:15:34;102458.28;;;4.22;100.00
58473;BME280;44775;51.564;5.460;2023-01-27T09:18:00;102452.69;;;4.42;100.00
58473;BME280;44775;51.564;5.460;2023-01-27T09:20:26;102457.38;;;4.37;100.00
58473;BME280;44775;51.564;5.460;2023-01-27T09:22:53;102456.34;;;4.40;100.00
58473;BME280;44775;51.564;5.460;2023-01-27T09:25:19;102458.47;;;4.49;100.00
58473;BME280;44775;51.564;5.460;2023-01-27T09:27:44;102457.88;;;4.44;100.00
58473;BME280;44775;51.564;5.460;2023-01-27T09:30:12;102475.72;;;4.56;100.00
58473;BME280;44775;51.564;5.460;2023-01-27T09:32:38;102467.34;;;4.48;100.00
58473;BME280;44775;51.564;5.460;2023-01-27T09:35:04;102463.03;;;4.61;100.00
58473;BME280;44775;51.564;5.460;2023-01-27T09:37:33;102479.59;;;4.65;100.00
58473;BME280;44775;51.564;5.460;2023-01-27T09:48:33;102486.53;;;4.82;100.00
58473;BME280;44775;51.564;5.460;2023-01-27T09:56:59;102476.97;;;4.79;100.00
58473;BME280;44775;51.564;5.460;2023-01-27T09:59:42;102486.00;;;4.61;100.00
58473;BME280;44775;51.564;5.460;2023-01-27T10:02:23;102492.66;;;4.68;100.00
58473;BME280;44775;51.564;5.460;2023-01-27T10:04:59;102495.09;;;4.57;100.00
58473;BME280;44775;51.564;5.460;2023-01-27T10:16:08;102489.75;;;4.72;100.00
58473;BME280;44775;51.564;5.460;2023-01-27T10:18:45;102492.03;;;4.79;100.00
58473;BME280;44775;51.564;5.460;2023-01-27T10:26:50;102493.41;;;5.14;100.00
58473;BME280;44775;51.564;5.460;2023-01-27T10:29:27;102484.34;;;5.33;100.00
58473;BME280;44775;51.564;5.460;2023-01-27T10:32:08;102485.00;;;5.51;100.00
58473;BME280;44775;51.564;5.460;2023-01-27T10:34:57;102481.97;;;5.42;100.00
58473;BME280;44775;51.564;5.460;2023-01-27T10:40:07;102491.44;;;5.47;97.61
58473;BME280;44775;51.564;5.460;2023-01-27T10:42:58;102483.47;;;5.47;99.35
58473;BME280;44775;51.564;5.460;2023-01-27T10:45:43;102488.69;;;5.48;100.00
58473;BME280;44775;51.564;5.460;2023-01-27T10:48:20;102485.66;;;5.40;99.50
58473;BME280;44775;51.564;5.460;2023-01-27T10:50:57;102479.72;;;5.51;98.39
58473;BME280;44775;51.564;5.460;2023-01-27T10:56:31;102488.03;;;5.30;100.00
58473;BME280;44775;51.564;5.460;2023-01-27T10:59:11;102484.34;;;5.33;100.00
58473;BME280;44775;51.564;5.460;2023-01-27T11:01:46;102484.91;;;5.52;98.02
58473;BME280;44775;51.564;5.460;2023-01-27T11:04:33;102488.03;;;5.30;99.26
58473;BME280;44775;51.564;5.460;2023-01-27T11:07:03;102479.44;;;5.41;96.96
58473;BME280;44775;51.564;5.460;2023-01-27T11:09:40;102488.41;;;5.24;96.25
58473;BME280;44775;51.564;5.460;2023-01-27T11:12:12;102484.03;;;4.94;98.57
58473;BME280;44775;51.564;5.460;2023-01-27T11:14:50;102480.25;;;5.13;97.19
58473;BME280;44775;51.564;5.460;2023-01-27T11:22:47;102475.13;;;4.95;100.00
58473;BME280;44775;51.564;5.460;2023-01-27T11:36:08;102478.91;;;5.06;100.00
58473;BME280;44775;51.564;5.460;2023-01-27T11:38:34;102469.47;;;5.16;100.00
58473;BME280;44775;51.564;5.460;2023-01-27T11:41:00;102462.88;;;5.23;100.00
58473;BME280;44775;51.564;5.460;2023-01-27T11:43:27;102468.84;;;5.27;98.55
58473;BME280;44775;51.564;5.460;2023-01-27T11:46:16;102466.47;;;5.51;100.00
58473;BME280;44775;51.564;5.460;2023-01-27T11:48:48;102460.94;;;5.68;99.39
58473;BME280;44775;51.564;5.460;2023-01-27T11:51:23;102466.50;;;5.78;99.57
58473;BME280;44775;51.564;5.460;2023-01-27T11:56:36;102461.97;;;5.65;100.00
58473;BME280;44775;51.564;5.460;2023-01-27T11:59:05;102465.66;;;5.77;100.00
58473;BME280;44775;51.564;5.460;2023-01-27T12:01:41;102466.56;;;5.90;96.91
58473;BME280;44775;51.564;5.460;2023-01-27T12:06:58;102462.59;;;5.83;100.00
58473;BME280;44775;51.564;5.460;2023-01-27T12:09:39;102459.09;;;5.83;98.92
58473;BME280;44775;51.564;5.460;2023-01-27T12:17:18;102463.31;;;5.58;96.41
58473;BME280;44775;51.564;5.460;2023-01-27T12:19:46;102454.22;;;5.48;98.72
58473;BME280;44775;51.564;5.460;2023-01-27T12:22:26;102450.53;;;5.51;100.00
58473;BME280;44775;51.564;5.460;2023-01-27T12:25:00;102454.22;;;5.62;94.38
58473;BME280;44775;51.564;5.460;2023-01-27T12:27:32;102450.91;;;5.59;94.67
58473;BME280;44775;51.564;5.460;2023-01-27T12:30:03;102431.53;;;5.44;95.09
58473;BME280;44775;51.564;5.460;2023-01-27T12:32:41;102445.44;;;5.33;97.76
58473;BME280;44775;51.564;5.460;2023-01-27T12:35:19;102446.28;;;5.48;97.90
58473;BME280;44775;51.564;5.460;2023-01-27T12:37:46;102441.81;;;5.49;97.16
58473;BME280;44775;51.564;5.460;2023-01-27T12:40:22;102427.78;;;5.47;97.19
58473;BME280;44775;51.564;5.460;2023-01-27T12:43:09;102437.84;;;5.56;98.51
58473;BME280;44775;51.564;5.460;2023-01-27T12:45:38;102428.06;;;5.56;98.43
58473;BME280;44775;51.564;5.460;2023-01-27T12:50:42;102437.63;;;5.59;97.61
58473;BME280;44775;51.564;5.460;2023-01-27T12:53:12;102427.22;;;5.56;97.96
58473;BME280;44775;51.564;5.460;2023-01-27T13:00:53;102420.34;;;5.80;99.05
58473;BME280;44775;51.564;5.460;2023-01-27T13:03:19;102415.78;;;5.97;98.33
58473;BME280;44775;51.564;5.460;2023-01-27T13:05:45;102414.41;;;6.04;98.67
58473;BME280;44775;51.564;5.460;2023-01-27T13:08:16;102412.66;;;5.90;97.87
58473;BME280;44775;51.564;5.460;2023-01-27T13:10:55;102422.03;;;5.96;96.17
58473;BME280;44775;51.564;5.460;2023-01-27T13:13:26;102424.53;;;5.84;99.96
58473;BME280;44775;51.564;5.460;2023-01-27T13:16:15;102421.88;;;5.84;97.65
58473;BME280;44775;51.564;5.460;2023-01-27T13:18:52;102433.22;;;5.86;97.51
58473;BME280;44775;51.564;5.460;2023-01-27T13:21:20;102424.84;;;5.65;94.72
58473;BME280;44775;51.564;5.460;2023-01-27T13:23:49;102422.50;;;5.61;97.27
58473;BME280;44775;51.564;5.460;2023-01-27T13:26:19;102415.94;;;5.66;99.76
58473;BME280;44775;51.564;5.460;2023-01-27T13:34:27;102427.00;;;5.73;96.43
58473;BME280;44775;51.564;5.460;2023-01-27T13:36:59;102424.75;;;5.67;96.72
58473;BME280;44775;51.564;5.460;2023-01-27T13:42:49;102416.75;;;5.81;96.76
58473;BME280;44775;51.564;5.460;2023-01-27T13:45:20;102426.09;;;5.87;96.83
58473;BME280;44775;51.564;5.460;2023-01-27T13:50:42;102424.16;;;5.76;93.56
58473;BME280;44775;51.564;5.460;2023-01-27T13:53:16;102431.38;;;5.74;94.11
58473;BME280;44775;51.564;5.460;2023-01-27T14:06:55;102429.84;;;5.70;100.00
58473;BME280;44775;51.564;5.460;2023-01-27T14:15:09;102426.88;;;5.89;99.53
58473;BME280;44775;51.564;5.460;2023-01-27T14:22:41;102442.91;;;5.87;96.11
58473;BME280;44775;51.564;5.460;2023-01-27T14:25:24;102441.97;;;5.60;97.43
58473;BME280;44775;51.564;5.460;2023-01-27T14:30:40;102443.78;;;5.59;97.65
58473;BME280;44775;51.564;5.460;2023-01-27T14:36:08;102457.25;;;5.56;100.00
58473;BME280;44775;51.564;5.460;2023-01-27T14:47:00;102458.22;;;5.41;97.31
58473;BME280;44775;51.564;5.460;2023-01-27T14:49:36;102458.59;;;5.35;99.52
58473;BME280;44775;51.564;5.460;2023-01-27T14:55:13;102457.34;;;5.12;100.00
58473;BME280;44775;51.564;5.460;2023-01-27T15:09:16;102467.94;;;4.83;100.00
58473;BME280;44775;51.564;5.460;2023-01-27T15:11:59;102476.34;;;4.90;100.00
58473;BME280;44775;51.564;5.460;2023-01-27T15:20:02;102484.31;;;4.90;100.00
58473;BME280;44775;51.564;5.460;2023-01-27T15:22:51;102484.41;;;5.03;96.52
58473;BME280;44775;51.564;5.460;2023-01-27T15:27:54;102498.16;;;4.79;94.60
58473;BME280;44775;51.564;5.460;2023-01-27T15:30:24;102504.03;;;4.70;93.68
58473;BME280;44775;51.564;5.460;2023-01-27T15:32:51;102498.31;;;4.62;99.12
58473;BME280;44775;51.564;5.460;2023-01-27T15:35:38;102500.22;;;4.60;97.96
58473;BME280;44775;51.564;5.460;2023-01-27T15:41:13;102510.84;;;4.74;99.07
58473;BME280;44775;51.564;5.460;2023-01-27T15:43:41;102505.53;;;4.74;99.24